createdAt,value
2023-11-30T00:00:18.837Z,52.85
2023-11-30T00:01:14.457Z,52.34
2023-11-30T00:01:47.705Z,53.53
2023-11-30T00:02:21.046Z,54.12
2023-11-30T00:02:54.322Z,54.39
2023-11-30T00:03:27.599Z,54.83
2023-11-30T00:04:00.885Z,55.31
2023-11-30T00:04:34.198Z,55.63
2023-11-30T00:05:08.935Z,56.20
2023-11-30T00:05:42.077Z,56.72
2023-11-30T00:06:15.389Z,57.17
2023-11-30T00:06:48.851Z,57.54
2023-11-30T00:07:22.064Z,57.97
2023-11-30T00:07:55.833Z,58.42
2023-11-30T00:08:29.001Z,58.71
2023-11-30T00:09:02.302Z,58.85
2023-11-30T00:09:35.766Z,58.48
2023-11-30T00:10:09.382Z,58.25
2023-11-30T00:10:42.502Z,58.26
2023-11-30T00:11:15.807Z,58.48
2023-11-30T00:11:49.025Z,58.62
2023-11-30T00:12:22.423Z,58.79
2023-11-30T00:12:55.641Z,59.12
2023-11-30T00:13:29.021Z,59.64
2023-11-30T00:14:02.216Z,60.06
2023-11-30T00:14:35.497Z,60.37
2023-11-30T00:15:09.103Z,60.81
2023-11-30T00:15:44.415Z,61.06
2023-11-30T00:16:19.546Z,60.89
2023-11-30T00:16:52.758Z,60.90
2023-11-30T00:17:26.026Z,60.61
2023-11-30T00:17:59.400Z,60.57
2023-11-30T00:18:32.853Z,60.76
2023-11-30T00:19:06.772Z,60.82
2023-11-30T00:19:40.953Z,60.92
2023-11-30T00:20:14.338Z,61.10
2023-11-30T00:20:47.693Z,61.49
2023-11-30T00:21:21.165Z,61.89
2023-11-30T00:21:54.384Z,62.27
2023-11-30T00:22:27.580Z,62.52
2023-11-30T00:23:00.802Z,62.84
2023-11-30T00:23:36.604Z,63.22
2023-11-30T00:24:09.818Z,63.42
2023-11-30T00:24:43.437Z,63.10
2023-11-30T00:25:16.844Z,62.43
2023-11-30T00:25:50.124Z,61.38
2023-11-30T00:26:23.289Z,60.47
2023-11-30T00:26:56.501Z,59.60
2023-11-30T00:27:29.610Z,58.56
2023-11-30T00:28:02.826Z,57.40
2023-11-30T00:28:36.112Z,56.52
2023-11-30T00:29:09.345Z,56.12
2023-11-30T00:29:42.578Z,56.38
2023-11-30T00:30:16.531Z,56.95
2023-11-30T00:30:49.743Z,57.58
2023-11-30T00:31:22.972Z,58.27
2023-11-30T00:31:56.252Z,59.30
2023-11-30T00:32:29.384Z,60.14
2023-11-30T00:33:02.833Z,60.94
2023-11-30T00:33:36.211Z,61.68
2023-11-30T00:34:09.415Z,62.40
2023-11-30T00:34:43.028Z,63.09
2023-11-30T00:35:16.035Z,63.87
2023-11-30T00:35:49.406Z,64.15
2023-11-30T00:36:22.790Z,64.01
2023-11-30T00:36:56.027Z,63.95
2023-11-30T00:37:29.245Z,63.60
2023-11-30T00:38:02.584Z,62.87
2023-11-30T00:38:35.797Z,62.33
2023-11-30T00:39:09.772Z,61.28
2023-11-30T00:39:42.944Z,60.70
2023-11-30T00:40:16.104Z,59.73
2023-11-30T00:40:49.297Z,58.76
2023-11-30T00:41:22.489Z,57.55
2023-11-30T00:41:55.885Z,56.59
2023-11-30T00:42:29.421Z,56.12
2023-11-30T00:43:02.920Z,56.14
2023-11-30T00:43:36.519Z,56.43
2023-11-30T00:44:09.737Z,56.93
2023-11-30T00:44:42.889Z,57.44
2023-11-30T00:45:16.290Z,58.01
2023-11-30T00:46:00.454Z,58.67
2023-11-30T00:46:40.555Z,59.43
2023-11-30T00:47:13.963Z,59.99
2023-11-30T00:47:47.299Z,60.53
2023-11-30T00:48:20.751Z,61.07
2023-11-30T00:48:54.177Z,61.60
2023-11-30T00:49:27.368Z,62.02
2023-11-30T00:50:00.675Z,62.42
2023-11-30T00:50:34.019Z,62.92
2023-11-30T00:51:11.535Z,63.36
2023-11-30T00:51:44.875Z,63.70
2023-11-30T00:52:18.766Z,63.33
2023-11-30T00:52:51.764Z,62.90
2023-11-30T00:53:24.916Z,62.48
2023-11-30T00:53:58.160Z,61.10
2023-11-30T00:54:31.471Z,60.56
2023-11-30T00:55:05.042Z,59.35
2023-11-30T00:55:38.243Z,58.08
2023-11-30T00:56:12.632Z,56.74
2023-11-30T00:56:45.832Z,55.66
2023-11-30T00:57:19.161Z,55.20
2023-11-30T00:57:52.491Z,55.10
2023-11-30T00:58:25.551Z,55.21
2023-11-30T00:58:58.861Z,55.54
2023-11-30T00:59:32.028Z,55.98
2023-11-30T01:00:07.343Z,56.48
2023-11-30T01:00:40.553Z,57.06
2023-11-30T01:01:13.855Z,57.51
2023-11-30T01:01:47.275Z,58.00
2023-11-30T01:02:20.729Z,58.48
2023-11-30T01:02:54.086Z,58.89
2023-11-30T01:03:27.525Z,59.34
2023-11-30T01:04:01.073Z,59.73
2023-11-30T01:04:34.829Z,60.26
2023-11-30T01:05:08.320Z,60.66
2023-11-30T01:05:41.617Z,61.01
2023-11-30T01:06:15.345Z,61.45
2023-11-30T01:06:49.817Z,61.84
2023-11-30T01:07:23.174Z,62.22
2023-11-30T01:07:56.363Z,62.59
2023-11-30T01:08:29.537Z,63.03
2023-11-30T01:09:02.729Z,63.36
2023-11-30T01:09:38.346Z,63.10
2023-11-30T01:10:11.731Z,62.88
2023-11-30T01:10:45.527Z,61.90
2023-11-30T01:11:18.697Z,60.95
2023-11-30T01:11:51.769Z,59.95
2023-11-30T01:12:28.058Z,59.02
2023-11-30T01:13:01.306Z,57.73
2023-11-30T01:13:34.507Z,56.45
2023-11-30T01:14:07.763Z,55.99
2023-11-30T01:14:41.574Z,56.02
2023-11-30T01:15:15.582Z,56.22
2023-11-30T01:15:48.967Z,56.60
2023-11-30T01:16:22.388Z,57.18
2023-11-30T01:16:55.732Z,57.80
2023-11-30T01:17:28.951Z,58.30
2023-11-30T01:18:02.535Z,58.95
2023-11-30T01:18:35.889Z,59.46
2023-11-30T01:19:09.309Z,59.95
2023-11-30T01:19:43.026Z,60.29
2023-11-30T01:20:16.231Z,60.77
2023-11-30T01:20:49.532Z,61.17
2023-11-30T01:21:22.748Z,61.59
2023-11-30T01:21:55.951Z,61.91
2023-11-30T01:22:29.429Z,62.23
2023-11-30T01:23:02.604Z,62.60
2023-11-30T01:23:35.783Z,63.03
2023-11-30T01:24:08.989Z,63.31
2023-11-30T01:24:42.651Z,63.15
2023-11-30T01:25:15.942Z,62.94
2023-11-30T01:25:49.241Z,62.36
2023-11-30T01:26:22.496Z,61.22
2023-11-30T01:26:55.693Z,60.64
2023-11-30T01:27:29.132Z,60.03
2023-11-30T01:28:02.337Z,58.99
2023-11-30T01:28:35.417Z,57.89
2023-11-30T01:29:08.743Z,56.89
2023-11-30T01:29:41.878Z,56.36
2023-11-30T01:30:15.163Z,56.33
2023-11-30T01:30:48.338Z,56.45
2023-11-30T01:31:21.685Z,56.84
2023-11-30T01:31:54.990Z,57.25
2023-11-30T01:32:28.333Z,57.75
2023-11-30T01:33:01.675Z,58.37
2023-11-30T01:33:35.092Z,58.99
2023-11-30T01:34:08.526Z,59.41
2023-11-30T01:34:41.706Z,59.98
2023-11-30T01:35:14.899Z,60.46
2023-11-30T01:35:49.525Z,60.92
2023-11-30T01:36:22.837Z,61.42
2023-11-30T01:36:56.366Z,61.75
2023-11-30T01:37:29.648Z,62.09
2023-11-30T01:38:03.111Z,62.33
2023-11-30T01:38:36.515Z,62.65
2023-11-30T01:39:09.727Z,63.08
2023-11-30T01:39:42.864Z,63.38
2023-11-30T01:40:16.060Z,63.36
2023-11-30T01:40:49.426Z,63.08
2023-11-30T01:41:22.621Z,62.12
2023-11-30T01:41:55.820Z,61.23
2023-11-30T01:42:30.055Z,60.20
2023-11-30T01:43:06.551Z,58.95
2023-11-30T01:43:39.743Z,57.43
2023-11-30T01:44:13.045Z,56.32
2023-11-30T01:44:46.177Z,55.89
2023-11-30T01:45:19.518Z,55.85
2023-11-30T01:46:02.566Z,55.95
2023-11-30T01:46:38.253Z,56.13
2023-11-30T01:47:11.703Z,56.84
2023-11-30T01:47:45.821Z,57.48
2023-11-30T01:48:19.212Z,57.98
2023-11-30T01:48:52.628Z,58.40
2023-11-30T01:49:25.990Z,58.94
2023-11-30T01:49:59.834Z,59.58
2023-11-30T01:50:33.020Z,60.00
2023-11-30T01:51:07.292Z,60.46
2023-11-30T01:51:40.710Z,60.89
2023-11-30T01:52:13.876Z,61.07
2023-11-30T01:52:47.264Z,61.35
2023-11-30T01:53:20.551Z,61.72
2023-11-30T01:53:54.382Z,62.10
2023-11-30T01:54:27.976Z,62.45
2023-11-30T01:55:02.850Z,62.73
2023-11-30T01:55:36.240Z,63.16
2023-11-30T01:56:10.182Z,63.37
2023-11-30T01:56:43.805Z,63.20
2023-11-30T01:57:17.020Z,62.79
2023-11-30T01:57:50.062Z,62.02
2023-11-30T01:58:23.866Z,61.16
2023-11-30T01:58:57.352Z,60.17
2023-11-30T01:59:31.028Z,59.18
2023-11-30T02:00:05.787Z,57.81
2023-11-30T02:00:39.354Z,56.77
2023-11-30T02:01:12.702Z,56.23
2023-11-30T02:01:46.498Z,56.06
2023-11-30T02:02:19.860Z,56.19
2023-11-30T02:02:53.627Z,56.54
2023-11-30T02:03:27.466Z,56.87
2023-11-30T02:04:08.279Z,57.41
2023-11-30T02:04:43.154Z,57.79
2023-11-30T02:05:16.551Z,58.55
2023-11-30T02:05:49.939Z,59.27
2023-11-30T02:06:23.153Z,59.77
2023-11-30T02:06:56.372Z,60.20
2023-11-30T02:07:29.551Z,60.67
2023-11-30T02:08:02.964Z,61.07
2023-11-30T02:08:36.236Z,61.47
2023-11-30T02:09:09.432Z,61.89
2023-11-30T02:09:42.781Z,62.16
2023-11-30T02:10:16.014Z,62.54
2023-11-30T02:10:49.234Z,62.94
2023-11-30T02:11:22.441Z,63.38
2023-11-30T02:11:55.633Z,63.52
2023-11-30T02:12:29.143Z,63.44
2023-11-30T02:13:02.750Z,62.73
2023-11-30T02:13:36.047Z,61.76
2023-11-30T02:14:09.324Z,60.91
2023-11-30T02:14:42.517Z,60.60
2023-11-30T02:15:15.771Z,59.89
2023-11-30T02:15:49.117Z,58.71
2023-11-30T02:16:22.431Z,57.49
2023-11-30T02:16:55.727Z,56.35
2023-11-30T02:17:28.929Z,55.85
2023-11-30T02:18:02.363Z,55.89
2023-11-30T02:18:35.830Z,56.12
2023-11-30T02:19:09.057Z,56.56
2023-11-30T02:19:42.452Z,57.06
2023-11-30T02:20:15.725Z,57.53
2023-11-30T02:20:48.799Z,57.98
2023-11-30T02:21:22.210Z,58.45
2023-11-30T02:21:55.364Z,58.84
2023-11-30T02:22:28.645Z,59.36
2023-11-30T02:23:02.132Z,59.76
2023-11-30T02:23:35.505Z,60.34
2023-11-30T02:24:09.044Z,60.69
2023-11-30T02:24:42.371Z,61.03
2023-11-30T02:25:15.902Z,61.48
2023-11-30T02:25:49.341Z,61.72
2023-11-30T02:26:22.531Z,62.02
2023-11-30T02:26:55.848Z,62.37
2023-11-30T02:27:29.211Z,62.71
2023-11-30T02:28:02.496Z,63.13
2023-11-30T02:28:35.642Z,63.27
2023-11-30T02:29:08.935Z,62.94
2023-11-30T02:29:42.321Z,62.04
2023-11-30T02:30:15.603Z,61.62
2023-11-30T02:30:51.034Z,60.71
2023-11-30T02:31:24.321Z,59.78
2023-11-30T02:31:57.917Z,58.20
2023-11-30T02:32:31.210Z,57.18
2023-11-30T02:33:04.847Z,56.32
2023-11-30T02:33:38.087Z,55.94
2023-11-30T02:34:11.429Z,55.97
2023-11-30T02:34:44.808Z,56.34
2023-11-30T02:35:17.990Z,56.90
2023-11-30T02:35:51.432Z,57.44
2023-11-30T02:36:24.665Z,57.99
2023-11-30T02:36:57.721Z,58.50
2023-11-30T02:37:30.846Z,59.02
2023-11-30T02:38:03.972Z,59.52
2023-11-30T02:38:37.462Z,60.09
2023-11-30T02:39:10.995Z,60.54
2023-11-30T02:39:44.328Z,60.97
2023-11-30T02:40:17.517Z,61.34
2023-11-30T02:40:51.216Z,61.88
2023-11-30T02:41:24.370Z,62.30
2023-11-30T02:41:57.577Z,62.63
2023-11-30T02:42:30.988Z,63.14
2023-11-30T02:43:04.324Z,63.49
2023-11-30T02:43:37.469Z,63.34
2023-11-30T02:44:10.890Z,62.26
2023-11-30T02:44:43.962Z,61.50
2023-11-30T02:45:17.034Z,60.39
2023-11-30T02:45:50.196Z,59.28
2023-11-30T02:46:23.340Z,58.56
2023-11-30T02:46:56.409Z,57.21
2023-11-30T02:47:29.767Z,56.64
2023-11-30T02:48:03.524Z,56.38
2023-11-30T02:48:40.072Z,56.49
2023-11-30T02:49:13.384Z,56.89
2023-11-30T02:49:46.549Z,57.39
2023-11-30T02:50:19.669Z,57.79
2023-11-30T02:50:52.756Z,58.27
2023-11-30T02:51:26.026Z,58.96
2023-11-30T02:51:59.168Z,59.49
2023-11-30T02:52:32.412Z,59.96
2023-11-30T02:53:06.454Z,60.44
2023-11-30T02:53:39.825Z,60.84
2023-11-30T02:54:13.128Z,61.24
2023-11-30T02:54:46.276Z,61.85
2023-11-30T02:55:19.458Z,62.19
2023-11-30T02:55:52.842Z,62.46
2023-11-30T02:56:26.029Z,62.94
2023-11-30T02:56:59.427Z,63.38
2023-11-30T02:57:32.921Z,63.34
2023-11-30T02:58:06.278Z,62.99
2023-11-30T02:58:39.549Z,62.44
2023-11-30T02:59:12.715Z,61.63
2023-11-30T02:59:46.022Z,60.24
2023-11-30T03:00:19.632Z,58.35
2023-11-30T03:00:52.883Z,57.37
2023-11-30T03:01:26.189Z,56.16
2023-11-30T03:01:59.447Z,55.53
2023-11-30T03:02:32.904Z,55.38
2023-11-30T03:03:06.137Z,55.54
2023-11-30T03:03:39.550Z,55.93
2023-11-30T03:04:12.916Z,56.58
2023-11-30T03:04:46.665Z,57.15
2023-11-30T03:05:19.855Z,57.60
2023-11-30T03:05:53.385Z,58.34
2023-11-30T03:06:26.615Z,58.76
2023-11-30T03:06:59.789Z,59.25
2023-11-30T03:07:32.959Z,59.93
2023-11-30T03:08:06.058Z,60.46
2023-11-30T03:08:39.110Z,60.93
2023-11-30T03:09:13.450Z,61.35
2023-11-30T03:09:46.702Z,61.75
2023-11-30T03:10:24.194Z,62.24
2023-11-30T03:10:57.564Z,62.49
2023-11-30T03:11:30.862Z,62.95
2023-11-30T03:12:04.240Z,63.22
2023-11-30T03:12:37.297Z,63.17
2023-11-30T03:13:10.458Z,62.80
2023-11-30T03:13:43.578Z,62.38
2023-11-30T03:14:16.747Z,61.98
2023-11-30T03:14:49.902Z,61.27
2023-11-30T03:15:24.248Z,60.43
2023-11-30T03:15:57.544Z,59.34
2023-11-30T03:16:30.798Z,58.10
2023-11-30T03:17:04.065Z,57.48
2023-11-30T03:17:37.472Z,56.83
2023-11-30T03:18:10.741Z,56.56
2023-11-30T03:18:43.922Z,56.72
2023-11-30T03:19:17.736Z,57.11
2023-11-30T03:19:50.975Z,57.65
2023-11-30T03:20:24.365Z,58.18
2023-11-30T03:20:57.822Z,58.65
2023-11-30T03:21:31.127Z,59.12
2023-11-30T03:22:04.201Z,59.73
2023-11-30T03:22:37.481Z,60.21
2023-11-30T03:23:10.759Z,60.77
2023-11-30T03:23:44.346Z,61.21
2023-11-30T03:24:18.206Z,61.61
2023-11-30T03:24:51.325Z,61.98
2023-11-30T03:25:24.285Z,62.48
2023-11-30T03:25:57.484Z,62.80
2023-11-30T03:26:30.637Z,63.23
2023-11-30T03:27:03.952Z,63.31
2023-11-30T03:27:37.505Z,63.00
2023-11-30T03:28:10.695Z,62.38
2023-11-30T03:28:43.658Z,61.49
2023-11-30T03:29:16.853Z,60.65
2023-11-30T03:29:50.229Z,59.77
2023-11-30T03:30:23.519Z,59.10
2023-11-30T03:30:56.762Z,57.85
2023-11-30T03:31:30.129Z,56.89
2023-11-30T03:32:03.386Z,56.44
2023-11-30T03:32:36.679Z,56.37
2023-11-30T03:33:09.963Z,56.69
2023-11-30T03:33:43.411Z,57.05
2023-11-30T03:34:16.470Z,57.43
2023-11-30T03:34:49.604Z,58.06
2023-11-30T03:35:22.930Z,58.52
2023-11-30T03:35:57.354Z,59.15
2023-11-30T03:36:30.653Z,59.59
2023-11-30T03:37:04.116Z,60.23
2023-11-30T03:37:41.696Z,60.74
2023-11-30T03:38:14.922Z,61.29
2023-11-30T03:38:48.474Z,61.57
2023-11-30T03:39:21.910Z,62.06
2023-11-30T03:39:55.534Z,62.46
2023-11-30T03:40:28.812Z,62.91
2023-11-30T03:41:02.073Z,63.32
2023-11-30T03:41:35.356Z,63.50
2023-11-30T03:42:08.733Z,63.32
2023-11-30T03:42:42.152Z,63.04
2023-11-30T03:43:15.707Z,62.50
2023-11-30T03:43:49.517Z,61.25
2023-11-30T03:44:22.790Z,60.64
2023-11-30T03:44:55.917Z,59.73
2023-11-30T03:45:35.801Z,58.89
2023-11-30T03:46:09.427Z,57.56
2023-11-30T03:46:42.746Z,56.97
2023-11-30T03:47:16.247Z,56.82
2023-11-30T03:47:49.460Z,56.89
2023-11-30T03:48:22.746Z,57.23
2023-11-30T03:48:56.444Z,57.71
2023-11-30T03:49:29.712Z,58.27
2023-11-30T03:50:02.821Z,58.86
2023-11-30T03:50:35.944Z,59.40
2023-11-30T03:51:09.342Z,59.98
2023-11-30T03:51:42.643Z,60.52
2023-11-30T03:52:15.672Z,61.13
2023-11-30T03:52:48.917Z,61.68
2023-11-30T03:53:21.969Z,62.20
2023-11-30T03:53:55.273Z,62.57
2023-11-30T03:54:28.662Z,63.17
2023-11-30T03:55:01.779Z,63.56
2023-11-30T03:55:34.960Z,63.65
2023-11-30T03:56:08.988Z,63.38
2023-11-30T03:56:42.121Z,63.00
2023-11-30T03:57:15.226Z,62.56
2023-11-30T03:57:48.268Z,61.85
2023-11-30T03:58:21.579Z,61.22
2023-11-30T03:58:54.934Z,60.74
2023-11-30T03:59:28.122Z,60.02
2023-11-30T04:00:01.432Z,58.99
2023-11-30T04:00:35.028Z,58.04
2023-11-30T04:01:08.614Z,57.26
2023-11-30T04:01:42.026Z,56.86
2023-11-30T04:02:15.458Z,56.82
2023-11-30T04:02:49.078Z,57.13
2023-11-30T04:03:22.513Z,57.57
2023-11-30T04:03:55.890Z,57.97
2023-11-30T04:04:29.438Z,58.55
2023-11-30T04:05:05.290Z,59.17
2023-11-30T04:05:38.601Z,59.77
2023-11-30T04:06:20.439Z,60.28
2023-11-30T04:06:53.726Z,60.58
2023-11-30T04:07:30.995Z,61.29
2023-11-30T04:08:04.434Z,61.90
2023-11-30T04:08:37.606Z,62.37
2023-11-30T04:09:10.980Z,62.83
2023-11-30T04:09:44.389Z,63.19
2023-11-30T04:10:18.175Z,63.31
2023-11-30T04:10:51.762Z,63.08
2023-11-30T04:11:25.233Z,62.57
2023-11-30T04:11:58.662Z,61.68
2023-11-30T04:12:31.882Z,60.89
2023-11-30T04:13:05.391Z,59.93
2023-11-30T04:13:38.662Z,59.06
2023-11-30T04:14:11.870Z,58.15
2023-11-30T04:14:45.145Z,57.37
2023-11-30T04:15:18.622Z,57.07
2023-11-30T04:15:51.914Z,57.14
2023-11-30T04:16:25.168Z,57.44
2023-11-30T04:17:00.768Z,57.85
2023-11-30T04:17:36.289Z,58.46
2023-11-30T04:18:09.982Z,58.93
2023-11-30T04:18:43.942Z,59.59
2023-11-30T04:19:17.710Z,60.21
2023-11-30T04:19:51.115Z,60.62
2023-11-30T04:20:24.373Z,61.06
2023-11-30T04:20:57.905Z,61.63
2023-11-30T04:21:32.000Z,62.17
2023-11-30T04:22:05.463Z,62.63
2023-11-30T04:22:38.939Z,63.00
2023-11-30T04:23:12.642Z,63.39
2023-11-30T04:23:46.610Z,63.35
2023-11-30T04:24:19.974Z,63.09
2023-11-30T04:24:53.195Z,62.65
2023-11-30T04:25:26.890Z,61.68
2023-11-30T04:26:00.367Z,60.72
2023-11-30T04:26:33.652Z,59.98
2023-11-30T04:27:07.144Z,59.45
2023-11-30T04:27:40.346Z,58.47
2023-11-30T04:28:13.584Z,57.83
2023-11-30T04:28:46.872Z,57.35
2023-11-30T04:29:20.466Z,57.22
2023-11-30T04:29:53.979Z,57.41
2023-11-30T04:30:27.346Z,57.80
2023-11-30T04:31:01.923Z,58.29
2023-11-30T04:31:35.367Z,58.83
2023-11-30T04:32:09.106Z,59.47
2023-11-30T04:32:42.810Z,59.91
2023-11-30T04:33:16.023Z,60.57
2023-11-30T04:33:49.498Z,61.19
2023-11-30T04:34:22.943Z,61.73
2023-11-30T04:34:56.676Z,62.22
2023-11-30T04:35:30.229Z,62.73
2023-11-30T04:36:04.414Z,63.18
2023-11-30T04:36:37.928Z,63.59
2023-11-30T04:37:11.367Z,63.44
2023-11-30T04:37:44.880Z,63.41
2023-11-30T04:38:18.776Z,62.90
2023-11-30T04:38:52.151Z,62.28
2023-11-30T04:39:25.756Z,61.08
2023-11-30T04:39:59.332Z,60.50
2023-11-30T04:40:32.609Z,59.65
2023-11-30T04:41:06.308Z,58.73
2023-11-30T04:41:39.994Z,58.01
2023-11-30T04:42:13.072Z,57.57
2023-11-30T04:42:46.252Z,57.46
2023-11-30T04:43:19.430Z,57.56
2023-11-30T04:43:59.908Z,57.88
2023-11-30T04:44:33.356Z,58.36
2023-11-30T04:45:07.037Z,59.03
2023-11-30T04:45:40.400Z,59.51
2023-11-30T04:46:13.646Z,60.04
2023-11-30T04:46:47.220Z,60.50
2023-11-30T04:47:20.895Z,61.03
2023-11-30T04:47:54.230Z,61.59
2023-11-30T04:48:27.634Z,62.02
2023-11-30T04:49:01.551Z,62.56
2023-11-30T04:49:34.748Z,63.15
2023-11-30T04:50:08.659Z,63.43
2023-11-30T04:50:42.206Z,63.56
2023-11-30T04:51:16.058Z,63.38
2023-11-30T04:51:49.477Z,62.87
2023-11-30T04:52:22.741Z,62.29
2023-11-30T04:52:56.354Z,61.33
2023-11-30T04:53:29.741Z,60.60
2023-11-30T04:54:03.279Z,59.57
2023-11-30T04:54:39.058Z,58.48
2023-11-30T04:55:12.757Z,57.74
2023-11-30T04:55:46.058Z,57.28
2023-11-30T04:56:21.163Z,57.23
2023-11-30T04:56:54.589Z,57.46
2023-11-30T04:57:27.953Z,57.76
2023-11-30T04:58:01.194Z,58.27
2023-11-30T04:58:34.715Z,58.79
2023-11-30T04:59:08.076Z,59.31
2023-11-30T04:59:41.978Z,59.77
2023-11-30T05:00:16.226Z,60.42
2023-11-30T05:00:49.780Z,60.80
2023-11-30T05:01:23.277Z,61.28
2023-11-30T05:01:57.085Z,61.72
2023-11-30T05:02:30.544Z,62.35
2023-11-30T05:03:04.299Z,62.77
2023-11-30T05:03:39.154Z,63.10
2023-11-30T05:04:13.029Z,63.16
2023-11-30T05:04:46.518Z,62.85
2023-11-30T05:05:20.502Z,62.38
2023-11-30T05:05:54.693Z,61.50
2023-11-30T05:06:28.968Z,60.57
2023-11-30T05:07:02.290Z,59.71
2023-11-30T05:07:35.714Z,59.02
2023-11-30T05:08:09.106Z,58.25
2023-11-30T05:08:42.316Z,57.62
2023-11-30T05:09:16.666Z,57.45
2023-11-30T05:09:49.998Z,57.66
2023-11-30T05:10:23.626Z,58.04
2023-11-30T05:10:57.006Z,58.46
2023-11-30T05:11:31.013Z,58.88
2023-11-30T05:12:04.319Z,59.47
2023-11-30T05:12:37.760Z,59.93
2023-11-30T05:13:11.153Z,60.52
2023-11-30T05:13:44.424Z,61.11
2023-11-30T05:14:17.917Z,61.37
2023-11-30T05:14:51.294Z,61.85
2023-11-30T05:15:25.354Z,62.37
2023-11-30T05:16:00.421Z,62.82
2023-11-30T05:16:33.687Z,63.22
2023-11-30T05:17:07.666Z,63.20
2023-11-30T05:17:40.925Z,62.77
2023-11-30T05:18:14.325Z,62.16
2023-11-30T05:18:47.746Z,61.53
2023-11-30T05:19:21.138Z,60.53
2023-11-30T05:19:54.837Z,59.96
2023-11-30T05:20:28.114Z,58.99
2023-11-30T05:21:01.651Z,57.93
2023-11-30T05:21:35.068Z,57.56
2023-11-30T05:22:09.368Z,57.42
2023-11-30T05:22:43.460Z,57.61
2023-11-30T05:23:16.591Z,57.97
2023-11-30T05:23:49.848Z,58.38
2023-11-30T05:24:23.802Z,58.86
2023-11-30T05:24:57.104Z,59.37
2023-11-30T05:25:30.488Z,59.87
2023-11-30T05:26:04.386Z,60.31
2023-11-30T05:26:37.998Z,60.72
2023-11-30T05:27:11.526Z,61.31
2023-11-30T05:27:44.906Z,61.94
2023-11-30T05:28:18.461Z,62.36
2023-11-30T05:28:51.704Z,62.62
2023-11-30T05:29:25.031Z,63.16
2023-11-30T05:29:58.719Z,63.24
2023-11-30T05:30:32.318Z,63.07
2023-11-30T05:31:06.283Z,62.34
2023-11-30T05:31:39.528Z,61.65
2023-11-30T05:32:12.751Z,60.62
2023-11-30T05:32:46.278Z,59.78
2023-11-30T05:33:19.671Z,58.87
2023-11-30T05:33:52.986Z,57.92
2023-11-30T05:34:26.116Z,57.44
2023-11-30T05:34:59.761Z,57.32
2023-11-30T05:35:33.114Z,57.45
2023-11-30T05:36:06.411Z,57.77
2023-11-30T05:36:40.004Z,58.11
2023-11-30T05:37:13.259Z,58.68
2023-11-30T05:37:47.486Z,59.22
2023-11-30T05:38:20.981Z,59.79
2023-11-30T05:38:54.972Z,60.35
2023-11-30T05:39:28.508Z,60.69
2023-11-30T05:40:02.076Z,61.24
2023-11-30T05:40:36.840Z,61.84
2023-11-30T05:41:10.015Z,62.11
2023-11-30T05:41:43.865Z,62.62
2023-11-30T05:42:17.247Z,63.05
2023-11-30T05:42:50.722Z,63.27
2023-11-30T05:43:24.285Z,63.10
2023-11-30T05:43:57.694Z,62.91
2023-11-30T05:44:31.131Z,61.92
2023-11-30T05:45:04.957Z,61.13
2023-11-30T05:45:38.254Z,59.93
2023-11-30T05:46:11.719Z,59.50
2023-11-30T05:46:47.548Z,58.41
2023-11-30T05:47:22.858Z,57.47
2023-11-30T05:47:56.673Z,56.85
2023-11-30T05:48:31.128Z,56.72
2023-11-30T05:49:05.020Z,56.95
2023-11-30T05:49:38.456Z,57.40
2023-11-30T05:50:12.048Z,57.88
2023-11-30T05:50:45.324Z,58.25
2023-11-30T05:51:18.859Z,58.86
2023-11-30T05:51:52.195Z,59.35
2023-11-30T05:52:25.453Z,59.83
2023-11-30T05:52:58.755Z,60.30
2023-11-30T05:53:32.036Z,60.86
2023-11-30T05:54:05.382Z,61.30
2023-11-30T05:54:38.942Z,61.70
2023-11-30T05:55:13.190Z,62.29
2023-11-30T05:55:46.492Z,62.49
2023-11-30T05:56:19.812Z,62.86
2023-11-30T05:56:53.958Z,63.17
2023-11-30T05:57:27.769Z,63.14
2023-11-30T05:58:01.020Z,62.74
2023-11-30T05:58:34.321Z,61.90
2023-11-30T05:59:08.124Z,60.82
2023-11-30T05:59:41.479Z,59.76
2023-11-30T06:00:15.207Z,59.02
2023-11-30T06:00:48.652Z,58.33
2023-11-30T06:01:22.139Z,57.56
2023-11-30T06:01:55.639Z,57.24
2023-11-30T06:02:29.738Z,57.24
2023-11-30T06:03:05.467Z,57.41
2023-11-30T06:03:40.726Z,57.93
2023-11-30T06:04:14.105Z,58.45
2023-11-30T06:04:53.126Z,58.84
2023-11-30T06:05:26.595Z,59.40
2023-11-30T06:06:00.821Z,60.01
2023-11-30T06:06:34.438Z,60.39
2023-11-30T06:07:08.045Z,60.87
2023-11-30T06:07:41.673Z,61.34
2023-11-30T06:08:15.026Z,61.83
2023-11-30T06:08:48.941Z,61.98
2023-11-30T06:09:22.267Z,62.40
2023-11-30T06:09:55.832Z,62.86
2023-11-30T06:10:29.200Z,63.23
2023-11-30T06:11:02.450Z,63.08
2023-11-30T06:11:36.653Z,62.70
2023-11-30T06:12:10.537Z,62.07
2023-11-30T06:12:43.964Z,60.95
2023-11-30T06:13:17.436Z,60.01
2023-11-30T06:13:50.739Z,58.96
2023-11-30T06:14:24.179Z,57.86
2023-11-30T06:14:57.643Z,56.96
2023-11-30T06:15:31.044Z,56.58
2023-11-30T06:16:04.666Z,56.59
2023-11-30T06:16:38.252Z,56.87
2023-11-30T06:17:12.632Z,57.26
2023-11-30T06:17:46.637Z,57.77
2023-11-30T06:18:20.171Z,58.26
2023-11-30T06:18:53.477Z,58.61
2023-11-30T06:19:26.693Z,59.28
2023-11-30T06:20:01.384Z,59.77
2023-11-30T06:20:36.851Z,60.08
2023-11-30T06:21:11.074Z,60.67
2023-11-30T06:21:44.720Z,61.04
2023-11-30T06:22:18.442Z,61.52
2023-11-30T06:22:51.745Z,61.95
2023-11-30T06:23:25.169Z,62.24
2023-11-30T06:23:58.937Z,62.45
2023-11-30T06:24:32.728Z,62.78
2023-11-30T06:25:07.076Z,63.18
2023-11-30T06:25:40.345Z,63.24
2023-11-30T06:26:13.634Z,62.81
2023-11-30T06:26:46.939Z,62.10
2023-11-30T06:27:20.215Z,61.51
2023-11-30T06:27:53.590Z,60.44
2023-11-30T06:28:29.826Z,59.63
2023-11-30T06:29:03.346Z,58.21
2023-11-30T06:29:36.847Z,57.30
2023-11-30T06:30:10.332Z,56.73
2023-11-30T06:30:43.905Z,56.55
2023-11-30T06:31:17.285Z,56.66
2023-11-30T06:31:50.748Z,56.86
2023-11-30T06:32:24.120Z,57.20
2023-11-30T06:32:57.860Z,57.70
2023-11-30T06:33:31.307Z,58.20
2023-11-30T06:34:04.767Z,58.70
2023-11-30T06:34:39.750Z,59.19
2023-11-30T06:35:13.481Z,59.55
2023-11-30T06:35:46.968Z,59.89
2023-11-30T06:36:22.216Z,60.48
2023-11-30T06:36:55.729Z,60.79
2023-11-30T06:37:28.960Z,61.38
2023-11-30T06:38:03.573Z,61.74
2023-11-30T06:38:36.746Z,61.97
2023-11-30T06:39:10.255Z,62.31
2023-11-30T06:39:43.711Z,62.59
2023-11-30T06:40:16.993Z,62.90
2023-11-30T06:40:50.481Z,62.94
2023-11-30T06:41:23.784Z,62.56
2023-11-30T06:41:57.152Z,61.71
2023-11-30T06:42:30.546Z,61.08
2023-11-30T06:43:03.787Z,59.62
2023-11-30T06:43:37.508Z,58.57
2023-11-30T06:44:11.160Z,57.37
2023-11-30T06:44:45.709Z,56.48
2023-11-30T06:45:19.424Z,56.14
2023-11-30T06:45:52.665Z,56.09
2023-11-30T06:46:26.098Z,56.37
2023-11-30T06:46:59.578Z,56.80
2023-11-30T06:47:33.176Z,57.25
2023-11-30T06:48:06.819Z,57.66
2023-11-30T06:48:40.321Z,58.25
2023-11-30T06:49:14.546Z,58.59
2023-11-30T06:49:48.920Z,59.14
2023-11-30T06:50:22.213Z,59.58
2023-11-30T06:50:55.674Z,60.12
2023-11-30T06:51:29.188Z,60.49
2023-11-30T06:52:05.062Z,60.86
2023-11-30T06:52:39.330Z,61.15
2023-11-30T06:53:12.836Z,61.53
2023-11-30T06:53:46.390Z,61.86
2023-11-30T06:54:21.272Z,62.05
2023-11-30T06:54:54.984Z,62.36
2023-11-30T06:55:28.245Z,62.72
2023-11-30T06:56:01.862Z,62.95
2023-11-30T06:56:35.043Z,62.97
2023-11-30T06:57:08.464Z,62.62
2023-11-30T06:57:42.050Z,62.07
2023-11-30T06:58:15.487Z,61.02
2023-11-30T06:58:49.190Z,60.08
2023-11-30T06:59:22.355Z,58.86
2023-11-30T06:59:55.566Z,57.83
2023-11-30T07:00:29.173Z,57.04
2023-11-30T07:01:02.411Z,56.69
2023-11-30T07:01:37.919Z,56.66
2023-11-30T07:02:11.896Z,56.88
2023-11-30T07:02:45.668Z,57.20
2023-11-30T07:03:19.688Z,57.53
2023-11-30T07:03:53.550Z,57.84
2023-11-30T07:04:29.753Z,58.37
2023-11-30T07:05:05.749Z,58.90
2023-11-30T07:05:39.099Z,59.21
2023-11-30T07:06:12.691Z,59.64
2023-11-30T07:06:45.996Z,60.12
2023-11-30T07:07:28.294Z,60.39
2023-11-30T07:08:08.308Z,60.80
2023-11-30T07:08:41.575Z,61.21
2023-11-30T07:09:14.877Z,61.54
2023-11-30T07:09:48.452Z,61.67
2023-11-30T07:10:21.743Z,61.97
2023-11-30T07:10:55.844Z,62.26
2023-11-30T07:11:29.260Z,62.52
2023-11-30T07:12:02.742Z,62.70
2023-11-30T07:12:36.324Z,62.94
2023-11-30T07:13:09.658Z,63.00
2023-11-30T07:13:43.146Z,62.39